Time;durP1;ratioP1;P1;durP2;ratioP2;P2;SDS_P1;SDS_P2;PMS_P1;PMS_P2;Temp;Humidity;BMP_temperature;BMP_pressure;BME280_temperature;BME280_humidity;BME280_pressure;Samples;Min_cycle;Max_cycle;Signal;HPM_P1;HPM_P2
2021/10/15 00:00:07;;;;;;;2.53;1.38;;;;;;;11.46;55.48;101444.03;7976125;28;20036;-67
2021/10/15 00:04:02;;;;;;;2.75;1.35;;;;;;;11.45;55.50;101444.09;7989849;28;20030;-67
2021/10/15 00:07:53;;;;;;;3.67;1.58;;;;;;;11.44;55.61;101445.06;7989935;28;20037;-67
2021/10/15 00:11:45;;;;;;;6.63;1.70;;;;;;;11.44;55.46;101442.44;7983241;28;20744;-67
2021/10/15 00:15:35;;;;;;;8.32;1.90;;;;;;;11.43;55.51;101443.38;7967470;28;20029;-67
2021/10/15 00:19:26;;;;;;;4.78;1.48;;;;;;;11.36;55.63;101426.25;7985436;28;20017;-67
2021/10/15 00:23:17;;;;;;;3.05;1.50;;;;;;;11.37;55.61;101434.06;7978299;28;20057;-67
2021/10/15 00:27:08;;;;;;;2.85;1.50;;;;;;;11.33;55.52;101429.06;7967656;28;20037;-67
2021/10/15 00:30:59;;;;;;;4.60;1.58;;;;;;;11.30;55.32;101424.00;7987794;28;20037;-67
2021/10/15 00:34:50;;;;;;;4.15;1.50;;;;;;;11.27;55.47;101419.78;7986659;28;20462;-67
2021/10/15 00:38:41;;;;;;;3.55;1.60;;;;;;;11.25;55.43;101415.53;7987840;28;20119;-67
2021/10/15 00:42:31;;;;;;;1.83;1.50;;;;;;;11.20;55.32;101410.56;7979377;28;20029;-67
2021/10/15 00:46:22;;;;;;;3.45;1.40;;;;;;;11.09;55.36;101386.69;7968788;28;20484;-67
2021/10/15 00:50:12;;;;;;;3.05;1.40;;;;;;;11.11;55.26;101403.22;7987156;28;20036;-67
2021/10/15 00:54:04;;;;;;;2.38;1.42;;;;;;;11.11;55.24;101406.69;7986506;28;20033;-67
2021/10/15 00:57:54;;;;;;;3.03;1.80;;;;;;;11.06;55.17;101398.25;7981065;28;20025;-67
2021/10/15 01:01:45;;;;;;;3.28;1.40;;;;;;;11.02;55.07;101390.63;7986677;28;20047;-67
2021/10/15 01:05:36;;;;;;;2.05;1.63;;;;;;;10.98;55.02;101387.34;7986573;28;20025;-67
2021/10/15 01:09:27;;;;;;;2.85;1.58;;;;;;;10.93;55.15;101378.03;7989022;28;20541;-67
2021/10/15 01:13:18;;;;;;;3.85;1.90;;;;;;;10.87;55.08;101376.59;7977921;28;20489;-67
2021/10/15 01:17:09;;;;;;;4.60;1.70;;;;;;;10.84;55.07;101371.53;7985375;28;20033;-68
2021/10/15 01:21:00;;;;;;;1.90;1.20;;;;;;;10.76;55.08;101363.25;7987585;28;20029;-66
2021/10/15 01:24:50;;;;;;;3.72;1.75;;;;;;;10.75;55.11;101366.81;7987181;28;20624;-68
2021/10/15 01:28:41;;;;;;;5.38;1.70;;;;;;;10.70;55.00;101355.72;7976021;28;20025;-66
2021/10/15 01:32:32;;;;;;;3.42;1.70;;;;;;;10.64;55.14;101349.06;7986611;28;20025;-66
2021/10/15 01:36:22;;;;;;;3.67;1.60;;;;;;;10.58;55.13;101335.44;7986214;28;20033;-67
2021/10/15 01:40:13;;;;;;;3.67;1.60;;;;;;;10.55;55.13;101340.88;7974629;28;20040;-66
2021/10/15 01:44:04;;;;;;;3.28;1.80;;;;;;;10.52;55.07;101334.03;7986295;28;20029;-67
2021/10/15 01:47:55;;;;;;;2.75;1.63;;;;;;;10.49;54.98;101317.53;7986890;28;20037;-66
2021/10/15 01:51:45;;;;;;;5.95;2.20;;;;;;;10.46;55.04;101322.97;7980872;28;20040;-66
2021/10/15 01:55:36;;;;;;;3.75;1.80;;;;;;;10.41;55.06;101317.16;7986903;28;20033;-67
2021/10/15 01:59:27;;;;;;;2.60;1.80;;;;;;;10.37;55.24;101313.00;7986246;28;20633;-67
2021/10/15 02:03:18;;;;;;;5.13;1.70;;;;;;;10.37;55.21;101323.50;7985572;28;20031;-67
2021/10/15 02:07:08;;;;;;;4.03;1.70;;;;;;;10.36;55.21;101314.81;7967818;28;20085;-67
2021/10/15 02:10:59;;;;;;;2.85;2.03;;;;;;;10.36;55.33;101306.94;7970312;28;20044;-67
2021/10/15 02:14:50;;;;;;;4.68;1.98;;;;;;;10.33;55.14;101298.38;7981448;28;20037;-66
2021/10/15 02:18:40;;;;;;;2.10;1.83;;;;;;;10.32;55.23;101294.06;7985186;28;20030;-67
2021/10/15 02:22:31;;;;;;;3.25;2.03;;;;;;;10.34;55.32;101289.56;7968571;28;20033;-66
2021/10/15 02:26:21;;;;;;;3.70;2.08;;;;;;;10.34;55.34;101281.69;7984447;28;20033;-66
2021/10/15 02:30:14;;;;;;;9.27;1.92;;;;;;;10.29;55.30;101266.19;7963479;28;20035;-66
2021/10/15 02:34:04;;;;;;;3.75;2.05;;;;;;;10.36;55.36;101267.53;7974877;28;20041;-67
2021/10/15 02:38:00;;;;;;;3.65;1.90;;;;;;;10.38;55.54;101270.06;7977345;28;20040;-67
2021/10/15 02:41:51;;;;;;;3.40;1.60;;;;;;;10.37;55.46;101257.84;7982113;28;20037;-67
2021/10/15 02:45:41;;;;;;;3.05;1.95;;;;;;;10.42;55.63;101261.06;7984371;28;20032;-67
2021/10/15 02:49:32;;;;;;;4.78;1.95;;;;;;;10.42;55.57;101258.44;7985734;28;20543;-67
2021/10/15 02:53:23;;;;;;;2.83;1.92;;;;;;;10.44;55.60;101256.59;7985921;28;20030;-67
2021/10/15 02:57:13;;;;;;;3.40;2.17;;;;;;;10.45;55.71;101247.75;7992355;28;20074;-67
2021/10/15 03:01:04;;;;;;;4.18;1.80;;;;;;;10.45;55.71;101239.84;7991634;28;20035;-67
2021/10/15 03:04:55;;;;;;;3.80;1.55;;;;;;;10.46;55.60;101238.94;7987170;28;20036;-67
2021/10/15 03:08:45;;;;;;;3.53;2.00;;;;;;;10.46;55.54;101234.53;7992593;28;20025;-66
2021/10/15 03:12:37;;;;;;;4.35;2.13;;;;;;;10.46;55.55;101224.03;7983837;28;20090;-66
2021/10/15 03:16:28;;;;;;;5.47;2.25;;;;;;;10.51;56.13;101229.88;7968143;28;20030;-66
2021/10/15 03:20:19;;;;;;;4.88;2.75;;;;;;;10.51;55.84;101227.25;7992052;28;20112;-67
2021/10/15 03:24:10;;;;;;;3.95;1.70;;;;;;;10.53;55.77;101228.00;7991083;28;20242;-66
2021/10/15 03:28:01;;;;;;;3.47;2.10;;;;;;;10.52;55.65;101228.09;7984422;28;20789;-66
2021/10/15 03:31:51;;;;;;;5.05;1.88;;;;;;;10.52;55.68;101223.69;7990773;28;20055;-66
2021/10/15 03:35:42;;;;;;;2.75;1.80;;;;;;;10.53;55.79;101211.41;7990768;28;20032;-67
2021/10/15 03:39:32;;;;;;;2.75;1.80;;;;;;;10.54;55.82;101211.31;7989882;28;20029;-66
2021/10/15 03:43:23;;;;;;;6.65;2.05;;;;;;;10.55;55.74;101213.00;7955243;28;20493;-67
2021/10/15 03:47:14;;;;;;;3.78;1.65;;;;;;;10.55;55.79;101209.53;7969050;28;20082;-66
2021/10/15 03:51:04;;;;;;;4.75;2.45;;;;;;;10.56;55.75;101208.59;7989466;28;20720;-66
2021/10/15 03:54:55;;;;;;;2.50;1.45;;;;;;;10.58;55.86;101209.34;7970012;28;20038;-67
2021/10/15 03:58:45;;;;;;;3.78;1.95;;;;;;;10.57;55.85;101207.66;7988904;28;20045;-66
2021/10/15 04:02:38;;;;;;;3.78;1.67;;;;;;;10.60;55.83;101204.84;7988733;28;20032;-66
2021/10/15 04:06:28;;;;;;;5.25;2.00;;;;;;;10.61;55.66;101198.66;7987433;28;20075;-67
2021/10/15 04:10:19;;;;;;;3.95;1.77;;;;;;;10.61;55.92;101199.47;7978798;28;20543;-66
2021/10/15 04:14:09;;;;;;;4.75;1.73;;;;;;;10.61;55.82;101193.41;7972346;28;20426;-67
2021/10/15 04:18:00;;;;;;;3.70;2.00;;;;;;;10.61;55.83;101182.91;7971037;28;20036;-67
2021/10/15 04:21:51;;;;;;;3.15;1.60;;;;;;;10.62;55.94;101169.66;7985198;28;20042;-67
2021/10/15 04:25:41;;;;;;;2.50;1.63;;;;;;;10.62;55.76;101167.03;7981359;28;20025;-66
2021/10/15 04:29:32;;;;;;;4.25;1.80;;;;;;;10.61;55.91;101165.31;7977217;28;20021;-67
2021/10/15 04:33:22;;;;;;;4.47;1.50;;;;;;;10.61;55.85;101161.88;7981376;28;20021;-66
2021/10/15 04:37:13;;;;;;;3.15;1.45;;;;;;;10.61;55.95;101160.06;7989384;28;20095;-67
2021/10/15 04:41:04;;;;;;;4.53;1.70;;;;;;;10.61;55.88;101165.31;7974678;28;20065;-67
2021/10/15 04:44:54;;;;;;;3.00;1.90;;;;;;;10.60;56.02;101162.81;7988924;28;20854;-67
2021/10/15 04:48:45;;;;;;;2.55;1.60;;;;;;;10.57;55.84;101155.94;7988946;28;20391;-67
2021/10/15 04:52:35;;;;;;;3.15;1.58;;;;;;;10.60;56.01;101153.16;7988174;28;20040;-67
2021/10/15 04:56:26;;;;;;;3.17;1.83;;;;;;;10.60;55.90;101153.16;7972685;28;20032;-67
2021/10/15 05:00:18;;;;;;;2.38;1.50;;;;;;;10.58;55.89;101148.91;7988311;28;20018;-66
2021/10/15 05:04:09;;;;;;;3.10;1.60;;;;;;;10.59;55.94;101143.56;7985279;28;20031;-67
2021/10/15 05:08:00;;;;;;;4.57;1.58;;;;;;;10.62;56.03;101145.16;7972298;28;20371;-67
2021/10/15 05:11:50;;;;;;;2.95;1.75;;;;;;;10.63;55.93;101139.81;7983339;28;20057;-67
2021/10/15 05:15:45;;;;;;;7.10;1.65;;;;;;;10.60;55.90;101136.53;7971005;28;20075;-67
2021/10/15 05:19:36;;;;;;;4.88;1.90;;;;;;;10.62;55.94;101139.91;7968629;28;20022;-67
2021/10/15 05:23:26;;;;;;;2.83;1.55;;;;;;;10.66;56.11;101138.78;7975213;28;20056;-66
2021/10/15 05:27:17;;;;;;;2.40;1.42;;;;;;;10.66;56.04;101137.00;7986011;28;20041;-67
2021/10/15 05:31:07;;;;;;;3.63;1.52;;;;;;;10.63;56.06;101131.09;7985991;28;20033;-66
2021/10/15 05:34:58;;;;;;;3.55;2.00;;;;;;;10.68;55.90;101129.03;7978036;28;20709;-67
2021/10/15 05:38:48;;;;;;;3.17;1.80;;;;;;;10.68;55.94;101139.53;7971096;28;20667;-66
2021/10/15 05:42:47;;;;;;;4.63;1.75;;;;;;;10.69;55.91;101146.47;7987109;28;20669;-66
2021/10/15 05:46:37;;;;;;;;;;;;;;;10.58;56.30;101133.16;7980689;28;20037;-66
2021/10/15 05:50:29;;;;;;;3.35;1.77;;;;;;;10.64;56.12;101133.63;7984451;28;19920;-66
2021/10/15 05:54:30;;;;;;;8.18;1.85;;;;;;;10.64;56.15;101132.78;7985229;28;20082;-66
2021/10/15 06:02:34;;;;;;;5.25;2.03;;;;;;;10.60;56.09;101129.50;7965464;28;20044;-67
2021/10/15 06:14:37;;;;;;;6.15;2.00;;;;;;;10.66;56.09;101139.63;7981519;28;20437;-66
2021/10/15 06:18:36;;;;;;;2.92;1.88;;;;;;;10.67;56.05;101145.72;7948139;28;20029;-66
2021/10/15 06:22:28;;;;;;;9.73;2.05;;;;;;;10.60;56.32;101132.13;7984338;28;20032;-66
2021/10/15 06:26:19;;;;;;;2.75;1.80;;;;;;;10.69;55.80;101141.22;7974400;28;20095;-66
2021/10/15 06:30:09;;;;;;;3.63;1.70;;;;;;;10.70;56.13;101149.00;7971735;28;20029;-66
2021/10/15 06:34:00;;;;;;;5.93;1.95;;;;;;;10.70;56.18;101154.25;7979437;28;20033;-66
2021/10/15 06:37:51;;;;;;;3.22;1.75;;;;;;;10.69;56.33;101138.59;7992639;28;20025;-66
2021/10/15 06:41:42;;;;;;;4.82;1.65;;;;;;;10.71;56.40;101141.97;7991998;28;20551;-66
2021/10/15 06:45:32;;;;;;;4.65;2.10;;;;;;;10.73;56.20;101144.50;7991651;28;20033;-67
2021/10/15 06:49:23;;;;;;;3.78;1.73;;;;;;;10.70;56.33;101141.13;7991003;28;20036;-66
2021/10/15 06:53:14;;;;;;;3.55;1.70;;;;;;;10.73;56.47;101132.22;7986009;28;20087;-67
2021/10/15 06:57:04;;;;;;;3.30;2.22;;;;;;;10.77;56.48;101131.09;7977647;28;20025;-66
2021/10/15 07:00:55;;;;;;;4.15;1.88;;;;;;;10.79;56.39;101141.47;7974406;28;20033;-66
2021/10/15 07:04:45;;;;;;;3.72;1.70;;;;;;;10.79;56.52;101144.97;7993767;28;20048;-66
2021/10/15 07:08:36;;;;;;;4.78;1.83;;;;;;;10.78;56.54;101139.81;7998328;28;20039;-66
2021/10/15 07:12:27;;;;;;;7.45;1.98;;;;;;;10.82;56.50;101152.63;7988795;28;20043;-66
2021/10/15 07:16:18;;;;;;;2.25;1.50;;;;;;;10.87;56.77;101142.69;7974976;28;20433;-66
2021/10/15 07:20:10;;;;;;;2.92;1.63;;;;;;;10.91;56.61;101133.66;7975184;28;20510;-67
2021/10/15 07:24:00;;;;;;;5.03;2.28;;;;;;;10.91;56.58;101141.56;7982660;28;20029;-67
2021/10/15 07:27:51;;;;;;;2.03;1.67;;;;;;;10.95;56.56;101143.03;7989880;28;20044;-66
2021/10/15 07:31:41;;;;;;;2.55;1.60;;;;;;;10.96;56.47;101138.63;7993916;28;20760;-66
2021/10/15 07:35:32;;;;;;;3.05;1.77;;;;;;;10.96;56.66;101146.53;7972867;28;20025;-66
2021/10/15 07:39:23;;;;;;;5.63;1.92;;;;;;;10.98;56.58;101137.63;7974481;28;20025;-66
2021/10/15 07:43:13;;;;;;;3.28;1.95;;;;;;;11.01;56.58;101134.78;7978098;28;20052;-66
2021/10/15 07:47:04;;;;;;;4.20;1.80;;;;;;;11.02;56.80;101144.38;7968913;28;20029;-66
2021/10/15 07:50:55;;;;;;;2.50;1.80;;;;;;;11.06;56.77;101150.28;7962679;28;20030;-67
2021/10/15 07:54:45;;;;;;;4.93;2.35;;;;;;;11.08;56.74;101149.22;7972633;28;20104;-67
2021/10/15 07:58:36;;;;;;;3.28;1.88;;;;;;;11.09;56.81;101148.28;7972918;28;20030;-67
2021/10/15 08:02:28;;;;;;;3.40;2.00;;;;;;;11.12;56.67;101150.72;7972870;28;20033;-66
2021/10/15 08:06:19;;;;;;;3.95;1.73;;;;;;;11.16;56.81;101170.59;7973977;28;20036;-67
2021/10/15 08:10:11;;;;;;;5.65;2.60;;;;;;;11.19;56.69;101168.75;7958302;28;20037;-66
2021/10/15 08:14:01;;;;;;;5.85;2.95;;;;;;;11.20;56.83;101168.63;8000135;28;20029;-67
2021/10/15 08:17:53;;;;;;;5.60;2.92;;;;;;;11.22;56.98;101171.16;7990016;28;20029;-67
2021/10/15 08:21:43;;;;;;;3.95;1.98;;;;;;;11.25;56.94;101165.69;7979864;28;20060;-67
2021/10/15 08:25:34;;;;;;;5.32;2.55;;;;;;;11.26;56.61;101155.09;7973545;28;20751;-67
2021/10/15 08:29:24;;;;;;;6.05;2.28;;;;;;;11.30;57.02;101142.59;7973466;28;20070;-67
2021/10/15 08:33:15;;;;;;;3.42;1.95;;;;;;;11.36;57.08;101150.06;7954624;28;20041;-66
2021/10/15 08:37:06;;;;;;;3.60;2.00;;;;;;;11.41;57.07;101159.34;7969737;28;20036;-67
2021/10/15 08:40:56;;;;;;;6.03;2.38;;;;;;;11.48;56.93;101168.53;7976234;28;20033;-67
2021/10/15 08:44:47;;;;;;;4.68;2.63;;;;;;;11.50;57.10;101161.38;7986952;28;20045;-66
2021/10/15 08:48:39;;;;;;;4.30;2.58;;;;;;;11.53;57.19;101158.56;8004278;28;20033;-67
2021/10/15 08:52:29;;;;;;;5.68;2.65;;;;;;;11.60;57.09;101175.66;8004392;28;20044;-67
2021/10/15 08:56:21;;;;;;;6.15;3.10;;;;;;;11.64;57.16;101183.38;7985462;28;20036;-67
2021/10/15 09:00:29;;;;;;;8.63;3.35;;;;;;;11.65;57.16;101182.44;8003667;28;20033;-66
2021/10/15 09:04:20;;;;;;;4.75;2.60;;;;;;;11.65;57.29;101185.88;8003460;28;20511;-67
2021/10/15 09:08:10;;;;;;;6.45;2.80;;;;;;;11.67;57.54;101198.94;8003794;28;20526;-66
2021/10/15 09:12:21;;;;;;;6.28;2.75;;;;;;;11.69;57.58;101208.41;7981004;28;20043;-67
2021/10/15 09:16:11;;;;;;;3.63;2.25;;;;;;;11.71;57.48;101230.22;7987750;28;20063;-67
2021/10/15 09:20:03;;;;;;;5.68;2.80;;;;;;;11.69;57.50;101232.09;8003420;28;20121;-67
2021/10/15 09:23:56;;;;;;;5.55;2.60;;;;;;;11.69;57.61;101247.06;7970578;28;20376;-66
2021/10/15 09:27:48;;;;;;;6.38;3.20;;;;;;;11.66;57.94;101255.13;7952444;28;20421;-67
2021/10/15 09:31:47;;;;;;;3.25;2.17;;;;;;;11.60;57.95;101253.78;7977614;28;20037;-66
2021/10/15 09:35:38;;;;;;;5.00;2.70;;;;;;;11.63;57.88;101252.72;7970581;28;20159;-66
2021/10/15 09:39:30;;;;;;;4.80;2.55;;;;;;;11.60;58.00;101251.97;7985382;28;20017;-66
2021/10/15 09:43:32;;;;;;;6.38;3.40;;;;;;;11.66;58.28;101261.25;7981720;28;20533;-67
2021/10/15 09:47:26;;;;;;;4.63;3.05;;;;;;;11.70;58.33;101267.16;7987412;28;20434;-66
2021/10/15 09:51:19;;;;;;;4.70;2.88;;;;;;;11.74;58.53;101269.50;7977796;28;20040;-66
2021/10/15 09:55:35;;;;;;;4.97;2.35;;;;;;;11.76;58.57;101278.16;7989293;28;20090;-66
2021/10/15 09:59:41;;;;;;;4.72;2.72;;;;;;;11.76;58.79;101283.41;7970202;28;20040;-66
2021/10/15 10:03:32;;;;;;;3.35;2.42;;;;;;;11.80;58.73;101294.59;7979326;28;20390;-66
2021/10/15 10:07:24;;;;;;;3.35;2.15;;;;;;;11.81;58.69;101289.22;7985120;28;20500;-66
2021/10/15 10:11:15;;;;;;;4.22;2.40;;;;;;;11.81;58.64;101296.28;7978087;28;20117;-66
2021/10/15 10:15:09;;;;;;;3.30;2.10;;;;;;;11.83;58.57;101308.41;7985564;28;20033;-66
2021/10/15 10:19:03;;;;;;;5.43;2.10;;;;;;;11.83;58.87;101311.03;7968783;28;20029;-66
2021/10/15 10:23:01;;;;;;;4.03;2.40;;;;;;;11.84;58.78;101307.47;7966635;28;20509;-66
2021/10/15 10:26:55;;;;;;;3.25;2.60;;;;;;;11.86;58.94;101313.44;7964656;28;20751;-66
2021/10/15 10:30:50;;;;;;;4.40;2.28;;;;;;;11.87;58.98;101311.66;7971793;28;20048;-66
2021/10/15 10:34:41;;;;;;;3.45;2.03;;;;;;;11.94;58.98;101326.97;7967988;28;20029;-66
2021/10/15 10:38:31;;;;;;;3.28;1.75;;;;;;;11.97;59.01;101326.78;7974170;28;20085;-66
2021/10/15 10:42:28;;;;;;;2.70;1.80;;;;;;;12.03;59.04;101330.78;7985047;28;20044;-66
2021/10/15 10:46:22;;;;;;;1.77;1.50;;;;;;;12.07;58.99;101338.41;7982953;28;20558;-66
2021/10/15 10:50:13;;;;;;;1.33;1.23;;;;;;;12.11;58.84;101354.00;7984014;28;20640;-66
2021/10/15 10:54:04;;;;;;;2.13;0.80;;;;;;;12.11;58.65;101354.84;7983264;28;20571;-66
2021/10/15 10:57:54;;;;;;;1.48;0.95;;;;;;;12.10;58.50;101354.97;7981968;28;20040;-66
2021/10/15 11:01:52;;;;;;;1.00;0.90;;;;;;;12.04;58.21;101367.56;7970163;28;20083;-66
2021/10/15 11:05:52;;;;;;;1.63;0.80;;;;;;;12.06;58.12;101381.47;7968753;28;20037;-67
2021/10/15 11:09:56;;;;;;;3.80;0.95;;;;;;;12.12;58.42;101376.75;7968717;28;20029;-67
2021/10/15 11:13:48;;;;;;;2.20;0.90;;;;;;;12.15;58.33;101373.91;7957543;28;20048;-66
2021/10/15 11:17:48;;;;;;;2.40;0.75;;;;;;;12.18;58.28;101385.13;7972729;28;20029;-66
2021/10/15 11:21:38;;;;;;;5.28;0.70;;;;;;;12.24;58.17;101375.97;7980665;28;20026;-66
2021/10/15 11:25:33;;;;;;;2.42;0.93;;;;;;;12.27;58.16;101370.50;7983428;28;20025;-66
2021/10/15 11:29:24;;;;;;;1.90;0.63;;;;;;;12.27;58.11;101378.41;7985925;28;20033;-67
2021/10/15 11:33:20;;;;;;;2.35;1.00;;;;;;;12.34;58.36;101382.34;7980707;28;20035;-66
2021/10/15 11:37:10;;;;;;;0.93;0.73;;;;;;;12.36;58.25;101383.91;7979953;28;20056;-67
2021/10/15 11:41:06;;;;;;;2.38;1.15;;;;;;;12.48;58.05;101392.78;7968320;28;20064;-66
2021/10/15 11:44:57;;;;;;;0.50;0.50;;;;;;;12.52;58.11;101405.66;7983957;28;20080;-67
2021/10/15 11:48:49;;;;;;;0.65;0.65;;;;;;;12.58;58.16;101398.34;7974297;28;20045;-66
2021/10/15 11:52:56;;;;;;;2.30;0.80;;;;;;;12.63;57.95;101404.16;7980594;28;20130;-67
2021/10/15 11:56:46;;;;;;;4.43;0.90;;;;;;;12.74;58.06;101404.28;7981472;28;20509;-66
2021/10/15 12:00:37;;;;;;;0.77;0.70;;;;;;;12.79;57.70;101402.19;7985292;28;20033;-67
2021/10/15 12:04:27;;;;;;;1.08;0.57;;;;;;;12.86;57.86;101412.22;7983377;28;20564;-67
2021/10/15 12:08:18;;;;;;;2.28;0.70;;;;;;;12.94;58.08;101409.91;7978529;28;20029;-67
2021/10/15 12:12:09;;;;;;;1.40;0.70;;;;;;;13.03;57.44;101410.25;7981809;28;20033;-67
2021/10/15 12:16:00;;;;;;;1.48;0.90;;;;;;;13.06;57.30;101397.69;7978554;28;20088;-67
2021/10/15 12:19:53;;;;;;;2.05;0.90;;;;;;;13.08;57.11;101400.22;7952227;28;20034;-67
2021/10/15 12:23:54;;;;;;;2.15;0.90;;;;;;;13.12;56.97;101407.84;7963012;28;20124;-66
2021/10/15 12:27:45;;;;;;;3.05;0.80;;;;;;;13.15;57.25;101409.41;7978560;28;20490;-66
2021/10/15 12:31:36;;;;;;;1.60;0.52;;;;;;;13.13;56.98;101404.25;7968655;28;20025;-67
2021/10/15 12:35:28;;;;;;;1.25;0.70;;;;;;;13.16;57.15;101405.81;7972289;28;20033;-65
2021/10/15 12:39:22;;;;;;;4.63;0.68;;;;;;;13.21;56.80;101414.28;7975476;28;20038;-67
2021/10/15 12:43:16;;;;;;;4.18;1.00;;;;;;;13.24;56.87;101414.91;7975021;28;20471;-67
2021/10/15 12:47:08;;;;;;;3.45;1.00;;;;;;;13.23;56.42;101409.72;7943671;28;20584;-67
2021/10/15 12:50:59;;;;;;;2.75;0.65;;;;;;;13.18;56.39;101415.31;7964139;28;20037;-67
2021/10/15 12:54:49;;;;;;;4.25;1.50;;;;;;;13.06;56.00;101410.88;7949791;28;20113;-67
2021/10/15 12:58:47;;;;;;;5.75;1.17;;;;;;;13.04;56.00;101415.41;7957127;28;20669;-67
2021/10/15 13:02:37;;;;;;;1.58;0.70;;;;;;;12.97;55.94;101422.88;7968233;28;20452;-66
2021/10/15 13:06:30;;;;;;;2.03;0.80;;;;;;;12.92;55.83;101424.16;7981610;28;20039;-66
2021/10/15 13:10:23;;;;;;;2.15;1.05;;;;;;;12.84;55.80;101424.69;7975743;28;20152;-66
2021/10/15 13:14:13;;;;;;;1.58;0.73;;;;;;;12.79;55.73;101429.41;7977829;28;20029;-67
2021/10/15 13:18:22;;;;;;;2.33;0.80;;;;;;;12.74;55.72;101431.50;7963691;28;20064;-66
2021/10/15 13:22:13;;;;;;;3.53;0.80;;;;;;;12.73;55.70;101432.44;7982648;28;20059;-66
2021/10/15 13:26:04;;;;;;;3.65;1.40;;;;;;;12.73;55.75;101432.44;7983349;28;20037;-66
2021/10/15 13:29:55;;;;;;;4.25;0.77;;;;;;;12.68;55.55;101425.78;7939455;28;20033;-67
2021/10/15 13:33:46;;;;;;;0.70;0.52;;;;;;;12.68;55.71;101431.06;7965006;28;20039;-67
2021/10/15 13:37:41;;;;;;;3.83;0.90;;;;;;;12.67;55.53;101432.84;7980489;28;20040;-66
2021/10/15 13:41:46;;;;;;;2.00;0.90;;;;;;;12.65;55.32;101442.63;7960267;28;20494;-66
2021/10/15 13:45:41;;;;;;;5.65;0.75;;;;;;;12.64;55.04;101438.31;7975413;28;20029;-65
2021/10/15 13:49:46;;;;;;;3.65;1.13;;;;;;;12.66;55.24;101441.69;7975362;28;20029;-67
2021/10/15 13:53:38;;;;;;;2.55;0.85;;;;;;;12.63;55.42;101431.38;7980738;28;20029;-67
2021/10/15 13:57:29;;;;;;;2.20;0.98;;;;;;;12.69;55.36;101436.22;7957894;28;20116;-67
2021/10/15 14:01:30;;;;;;;7.57;1.38;;;;;;;12.72;55.43;101437.84;7965603;28;20074;-67
2021/10/15 14:05:21;;;;;;;3.10;0.77;;;;;;;12.81;55.43;101442.47;7978507;28;20025;-66
2021/10/15 14:09:11;;;;;;;5.07;1.20;;;;;;;12.88;55.28;101443.78;7978706;28;20098;-66
2021/10/15 14:13:02;;;;;;;1.85;0.80;;;;;;;12.95;55.46;101445.03;7954675;28;20025;-66
2021/10/15 14:16:52;;;;;;;2.80;0.85;;;;;;;13.02;55.25;101448.09;7969715;28;20025;-65
2021/10/15 14:20:43;;;;;;;5.57;1.40;;;;;;;13.06;55.19;101453.06;7980938;28;20037;-67
2021/10/15 14:24:37;;;;;;;1.70;0.80;;;;;;;13.10;55.12;101437.88;7970178;28;20099;-67
2021/10/15 14:28:28;;;;;;;3.22;1.08;;;;;;;13.11;55.20;101445.69;7965022;28;20065;-67
2021/10/15 14:32:18;;;;;;;1.13;0.80;;;;;;;13.13;54.71;101457.00;7960324;28;20029;-67
2021/10/15 14:36:09;;;;;;;3.97;1.40;;;;;;;13.15;54.59;101460.38;7976968;28;20037;-67
2021/10/15 14:40:04;;;;;;;2.20;0.70;;;;;;;13.17;54.54;101460.28;7977223;28;20033;-67
2021/10/15 14:43:54;;;;;;;3.35;0.85;;;;;;;13.18;54.72;101461.97;7965312;28;20502;-67
2021/10/15 14:47:45;;;;;;;3.70;1.00;;;;;;;13.19;54.45;101458.38;7966042;28;20033;-67
2021/10/15 14:51:36;;;;;;;2.15;0.98;;;;;;;13.20;54.27;101457.44;7981284;28;20530;-67
2021/10/15 14:55:27;;;;;;;2.58;1.02;;;;;;;13.21;53.99;101461.75;7983658;28;20043;-67
2021/10/15 14:59:17;;;;;;;3.00;1.10;;;;;;;13.20;54.03;101468.81;7972526;28;20021;-67
2021/10/15 15:03:08;;;;;;;2.63;0.82;;;;;;;13.18;54.07;101473.34;7959670;28;20060;-67
2021/10/15 15:06:59;;;;;;;1.13;0.90;;;;;;;13.12;53.83;101468.50;7963550;28;20040;-67
2021/10/15 15:10:50;;;;;;;4.13;1.10;;;;;;;13.07;54.13;101460.03;7982081;28;20376;-67
2021/10/15 15:14:40;;;;;;;3.22;1.05;;;;;;;13.09;54.02;101466.06;7977229;28;20034;-67
2021/10/15 15:18:32;;;;;;;2.15;1.05;;;;;;;13.07;54.11;101465.31;7970615;28;20044;-67
2021/10/15 15:22:23;;;;;;;2.63;0.85;;;;;;;13.05;53.99;101467.22;7959991;28;20941;-67
2021/10/15 15:26:13;;;;;;;5.20;1.20;;;;;;;13.03;53.95;101474.38;7943362;28;20056;-67
2021/10/15 15:30:06;;;;;;;1.80;0.77;;;;;;;12.99;53.90;101478.19;7960142;28;20456;-67
2021/10/15 15:33:56;;;;;;;2.05;0.73;;;;;;;12.94;53.98;101472.34;7941671;28;20037;-67
2021/10/15 15:37:47;;;;;;;2.80;0.95;;;;;;;12.84;53.88;101466.88;7965233;28;20120;-67
2021/10/15 15:41:39;;;;;;;5.85;1.42;;;;;;;12.81;54.22;101472.31;7959096;28;20078;-67
2021/10/15 15:45:29;;;;;;;3.63;1.20;;;;;;;12.70;53.90;101476.63;7961598;28;20030;-67
2021/10/15 15:49:20;;;;;;;3.78;1.75;;;;;;;12.66;53.91;101483.88;7957219;28;20106;-67
2021/10/15 15:53:11;;;;;;;4.25;1.27;;;;;;;12.54;53.90;101477.59;7953923;28;21368;-67
2021/10/15 15:57:01;;;;;;;4.07;1.02;;;;;;;12.46;53.85;101479.03;7957666;28;20483;-67
2021/10/15 16:00:52;;;;;;;4.18;1.13;;;;;;;12.43;54.06;101481.88;7970464;28;20036;-67
2021/10/15 16:04:43;;;;;;;3.67;1.00;;;;;;;12.34;53.95;101485.09;7966519;28;20041;-67
2021/10/15 16:08:34;;;;;;;4.10;1.10;;;;;;;12.29;53.97;101492.41;7958630;28;20441;-67
2021/10/15 16:12:24;;;;;;;3.17;0.98;;;;;;;12.21;54.00;101495.53;7961739;28;20562;-67
2021/10/15 16:16:15;;;;;;;2.63;0.90;;;;;;;12.13;53.92;101491.69;7963402;28;20421;-67
2021/10/15 16:20:06;;;;;;;5.63;1.85;;;;;;;12.04;53.98;101499.25;7978805;28;20024;-67
2021/10/15 16:23:59;;;;;;;1.65;0.70;;;;;;;11.98;54.19;101502.22;7955772;28;20029;-67
2021/10/15 16:27:49;;;;;;;3.08;1.17;;;;;;;11.90;54.05;101504.50;7968889;28;20037;-67
2021/10/15 16:31:40;;;;;;;2.92;1.25;;;;;;;11.85;54.04;101519.75;7958099;28;20115;-67
2021/10/15 16:35:30;;;;;;;2.38;1.08;;;;;;;11.75;54.22;101515.97;7955546;28;20083;-67
2021/10/15 16:39:21;;;;;;;4.10;1.35;;;;;;;11.72;54.12;101526.69;7978722;28;20506;-67
2021/10/15 16:43:12;;;;;;;2.30;1.20;;;;;;;11.67;54.00;101539.28;7972362;28;20118;-67
2021/10/15 16:47:02;;;;;;;5.70;1.67;;;;;;;11.62;54.08;101543.97;7968425;28;20036;-67
2021/10/15 16:50:53;;;;;;;1.75;0.85;;;;;;;11.57;54.09;101554.75;7976769;28;20033;-68
2021/10/15 16:54:47;;;;;;;1.13;0.90;;;;;;;11.53;54.00;101555.84;7953910;28;20592;-67
2021/10/15 16:58:37;;;;;;;3.15;1.02;;;;;;;11.49;53.87;101566.66;7968002;28;20071;-67
2021/10/15 17:02:28;;;;;;;2.92;1.20;;;;;;;11.43;53.97;101575.75;7967811;28;20553;-67
2021/10/15 17:06:18;;;;;;;4.85;1.70;;;;;;;11.38;53.91;101580.44;7962126;28;20037;-67
2021/10/15 17:10:09;;;;;;;5.72;1.80;;;;;;;11.31;54.21;101584.38;7962109;28;20102;-67
2021/10/15 17:14:00;;;;;;;2.13;1.23;;;;;;;11.30;54.04;101594.97;7970403;28;20572;-71
2021/10/15 17:17:50;;;;;;;3.53;1.15;;;;;;;11.25;53.91;101602.28;7954299;28;20038;-67
2021/10/15 17:21:41;;;;;;;2.45;1.17;;;;;;;11.19;53.89;101603.50;7938551;28;20034;-71
2021/10/15 17:25:32;;;;;;;5.00;2.42;;;;;;;11.10;54.03;101604.84;7964730;28;20044;-67
2021/10/15 17:29:24;;;;;;;4.35;1.30;;;;;;;11.03;53.88;101602.63;7958663;28;20051;-73
2021/10/15 17:33:15;;;;;;;5.78;1.67;;;;;;;10.99;53.79;101619.50;7959044;28;20034;-72
2021/10/15 17:37:06;;;;;;;2.90;1.00;;;;;;;10.88;53.90;101609.59;7944718;28;20036;-71
2021/10/15 17:40:56;;;;;;;5.22;1.40;;;;;;;10.87;53.70;101626.31;7976758;28;20531;-72
2021/10/15 17:44:47;;;;;;;7.35;1.50;;;;;;;10.80;53.77;101632.00;7975152;28;20045;-72
2021/10/15 17:48:38;;;;;;;4.28;1.50;;;;;;;10.69;53.80;101633.41;7978626;28;20090;-72
2021/10/15 17:52:28;;;;;;;3.58;1.70;;;;;;;10.66;53.65;101636.22;7973083;28;20040;-72
2021/10/15 17:56:19;;;;;;;4.30;1.25;;;;;;;10.59;53.70;101644.53;7959225;28;20060;-72
2021/10/15 18:00:13;;;;;;;3.35;1.08;;;;;;;10.47;53.77;101645.16;7957730;28;20033;-72
2021/10/15 18:04:04;;;;;;;4.15;1.50;;;;;;;10.41;53.66;101650.72;7959704;28;20048;-72
2021/10/15 18:07:56;;;;;;;2.85;1.33;;;;;;;10.35;53.60;101662.41;7963191;28;20048;-70